Time;durP1;ratioP1;P1;durP2;ratioP2;P2;SDS_P1;SDS_P2;PMS_P1;PMS_P2;Temp;Humidity;BMP_temperature;BMP_pressure;BME280_temperature;BME280_humidity;BME280_pressure;Samples;Min_cycle;Max_cycle;Signal;HPM_P1;HPM_P2
2023/08/14 00:00:50;;;;;;;9.35;3.58;;;;;;;19.22;53.24;94327.41;5022879;28;20030;-80
2023/08/14 00:03:16;;;;;;;4.65;2.95;;;;;;;19.23;53.29;94334.38;5022800;28;20018;-79
2023/08/14 00:05:41;;;;;;;4.88;2.65;;;;;;;19.31;52.46;94327.19;5023007;28;20022;-80
2023/08/14 00:08:07;;;;;;;4.43;2.40;;;;;;;19.32;52.96;94328.75;5021513;28;20030;-80
2023/08/14 00:10:32;;;;;;;5.00;2.42;;;;;;;19.32;52.46;94331.47;5021443;28;20049;-79
2023/08/14 00:12:57;;;;;;;4.57;2.83;;;;;;;19.25;52.47;94331.31;5022803;28;20319;-80
2023/08/14 00:15:23;;;;;;;5.18;2.72;;;;;;;19.24;52.27;94345.97;5022746;28;20056;-80
2023/08/14 00:17:50;;;;;;;9.05;2.70;;;;;;;19.27;52.01;94347.94;5022659;28;20068;-80
2023/08/14 00:20:16;;;;;;;7.60;3.70;;;;;;;19.22;53.67;94346.31;5021366;28;20045;-80
2023/08/14 00:22:42;;;;;;;5.90;3.67;;;;;;;19.13;54.89;94353.88;5022877;28;20097;-80
2023/08/14 00:25:09;;;;;;;5.97;3.75;;;;;;;19.06;55.70;94345.63;5022699;28;20037;-79
2023/08/14 00:27:34;;;;;;;8.65;3.90;;;;;;;18.99;56.57;94351.66;5022456;28;20057;-80
2023/08/14 00:30:00;;;;;;;6.57;3.90;;;;;;;18.86;57.27;94350.22;5022487;28;20193;-80
2023/08/14 00:32:26;;;;;;;8.43;3.92;;;;;;;18.69;58.22;94358.69;5022573;28;20026;-80
2023/08/14 00:34:51;;;;;;;5.47;3.55;;;;;;;18.61;58.35;94355.81;5021471;28;20048;-80
2023/08/14 00:37:17;;;;;;;7.72;4.15;;;;;;;18.54;59.29;94354.88;5022476;28;20219;-80
2023/08/14 00:39:42;;;;;;;9.13;4.10;;;;;;;18.44;58.97;94362.38;5022560;28;20049;-80
2023/08/14 00:42:08;;;;;;;8.63;4.25;;;;;;;18.31;59.75;94357.44;5022433;28;20053;-80
2023/08/14 00:44:33;;;;;;;7.60;4.75;;;;;;;18.22;60.05;94355.69;5022635;28;20025;-80
2023/08/14 00:46:59;;;;;;;8.73;5.18;;;;;;;18.21;60.93;94354.13;5022409;28;20300;-80
2023/08/14 00:49:25;;;;;;;9.27;4.78;;;;;;;18.08;60.99;94354.59;5022371;28;20018;-80
2023/08/14 00:51:51;;;;;;;11.40;4.63;;;;;;;18.08;60.84;94354.59;5022244;28;20025;-80
2023/08/14 00:54:16;;;;;;;9.98;4.43;;;;;;;18.04;61.72;94357.19;5025270;28;20018;-80
2023/08/14 00:56:42;;;;;;;8.18;3.78;;;;;;;17.96;61.45;94348.13;5026190;28;20014;-80
2023/08/14 00:59:08;;;;;;;8.23;4.10;;;;;;;17.98;61.92;94353.97;5026028;28;20093;-80
2023/08/14 01:01:34;;;;;;;8.75;3.95;;;;;;;17.86;62.06;94345.94;5025766;28;20017;-80
2023/08/14 01:04:00;;;;;;;8.25;4.47;;;;;;;17.87;62.72;94357.50;5025894;28;20021;-80
2023/08/14 01:06:25;;;;;;;6.85;4.07;;;;;;;17.86;61.88;94347.88;5025751;28;20280;-80
2023/08/14 01:08:51;;;;;;;8.25;4.40;;;;;;;17.76;62.09;94358.00;5025713;28;20304;-80
2023/08/14 01:11:43;;;;;;;15.35;4.35;;;;;;;17.74;63.24;94354.84;5024402;28;20117;-80
2023/08/14 01:14:19;;;;;;;7.38;4.47;;;;;;;17.69;63.13;94355.13;5025694;28;20025;-80
2023/08/14 01:16:50;;;;;;;11.65;4.50;;;;;;;17.64;62.99;94356.16;5025642;28;20319;-80
2023/08/14 01:19:25;;;;;;;9.27;4.95;;;;;;;17.65;63.06;94351.56;5025723;28;20021;-80
2023/08/14 01:22:16;;;;;;;11.82;4.97;;;;;;;17.60;63.33;94354.50;5025637;28;20040;-80
2023/08/14 01:24:55;;;;;;;8.77;4.75;;;;;;;17.63;63.26;94348.44;5025663;28;20025;-80
2023/08/14 01:27:21;;;;;;;8.15;4.53;;;;;;;17.55;62.78;94350.16;5025263;28;20048;-79
2023/08/14 01:30:00;;;;;;;13.65;4.22;;;;;;;17.59;63.70;94347.56;5025331;28;20022;-79
2023/08/14 01:32:26;;;;;;;8.40;5.05;;;;;;;17.55;63.73;94352.06;5025476;28;20018;-79
2023/08/14 01:34:54;;;;;;;7.40;4.35;;;;;;;17.55;63.88;94349.38;5025300;28;20021;-79
2023/08/14 01:37:26;;;;;;;7.80;4.05;;;;;;;17.52;64.11;94347.34;5025107;28;20022;-79
2023/08/14 01:40:03;;;;;;;7.47;4.50;;;;;;;17.51;64.64;94351.19;5025236;28;20036;-79
2023/08/14 01:42:32;;;;;;;11.45;4.88;;;;;;;17.48;64.64;94349.16;5024027;28;20049;-79
2023/08/14 01:45:02;;;;;;;12.60;4.60;;;;;;;17.45;64.93;94343.34;5024981;28;20032;-79
2023/08/14 01:47:30;;;;;;;10.55;4.80;;;;;;;17.40;64.90;94340.09;5024914;28;20132;-80
2023/08/14 01:49:57;;;;;;;8.02;4.25;;;;;;;17.38;65.22;94334.28;5024951;28;20097;-79
2023/08/14 01:52:23;;;;;;;7.43;3.72;;;;;;;17.31;64.61;94328.72;5024879;28;20034;-79
2023/08/14 01:54:49;;;;;;;5.15;3.03;;;;;;;17.23;63.54;94319.66;5025086;28;20193;-79
2023/08/14 01:57:14;;;;;;;5.93;3.15;;;;;;;17.20;61.61;94333.81;5025048;28;20040;-79
2023/08/14 01:59:45;;;;;;;5.22;2.80;;;;;;;17.29;59.74;94334.44;5023804;28;20064;-79
2023/08/14 02:02:12;;;;;;;4.95;2.78;;;;;;;17.33;59.21;94331.84;5024814;28;20022;-80
2023/08/14 02:04:38;;;;;;;6.47;2.60;;;;;;;17.38;58.64;94327.00;5023458;28;20022;-80
2023/08/14 02:07:05;;;;;;;4.13;2.75;;;;;;;17.44;58.72;94330.19;5024611;28;20025;-80
2023/08/14 02:09:32;;;;;;;5.38;2.95;;;;;;;17.44;58.57;94328.31;5024552;28;20049;-79
2023/08/14 02:11:59;;;;;;;4.03;2.40;;;;;;;17.48;58.23;94323.00;5024557;28;20193;-79
2023/08/14 02:14:24;;;;;;;4.45;2.47;;;;;;;17.53;57.53;94327.38;5024581;28;20017;-79
2023/08/14 02:16:50;;;;;;;5.10;2.22;;;;;;;17.54;58.01;94326.22;5024614;28;20392;-79
2023/08/14 02:19:15;;;;;;;8.48;2.63;;;;;;;17.50;58.40;94333.44;5024597;28;20032;-79
2023/08/14 02:21:40;;;;;;;6.20;2.78;;;;;;;17.47;58.14;94332.22;5024512;28;20021;-79
2023/08/14 02:24:07;;;;;;;8.00;2.80;;;;;;;17.42;58.02;94329.75;5024391;28;20104;-79
2023/08/14 02:26:32;;;;;;;5.68;2.40;;;;;;;17.47;57.86;94331.44;5024444;28;20209;-80
2023/08/14 02:28:57;;;;;;;2.80;1.92;;;;;;;17.49;57.77;94334.59;5024262;28;20048;-79
2023/08/14 02:31:23;;;;;;;6.95;2.70;;;;;;;17.51;57.28;94330.41;5024297;28;20088;-79
2023/08/14 02:33:48;;;;;;;3.45;2.35;;;;;;;17.43;57.22;94328.66;5022801;28;20029;-79
2023/08/14 02:36:14;;;;;;;6.25;2.50;;;;;;;17.43;56.82;94323.25;5024322;28;20251;-79
2023/08/14 02:38:39;;;;;;;6.38;2.67;;;;;;;17.49;56.63;94337.28;5024224;28;20052;-80
2023/08/14 02:41:06;;;;;;;6.75;2.42;;;;;;;17.46;56.63;94333.34;5022841;28;20022;-79
2023/08/14 02:43:32;;;;;;;4.38;2.65;;;;;;;17.49;56.61;94339.97;5023824;28;20049;-79
2023/08/14 02:45:57;;;;;;;5.95;2.20;;;;;;;17.47;56.84;94344.91;5024036;28;20093;-79
2023/08/14 02:48:23;;;;;;;9.48;2.88;;;;;;;17.47;57.79;94336.84;5022670;28;20030;-79
2023/08/14 02:51:25;;;;;;;8.38;2.50;;;;;;;17.43;58.02;94337.50;5023596;28;20092;-80
2023/08/14 02:53:51;;;;;;;5.22;2.60;;;;;;;17.37;59.24;94338.88;5021545;28;20029;-80
2023/08/14 02:56:16;;;;;;;6.78;3.03;;;;;;;17.30;58.10;94346.78;5020835;28;20026;-80
2023/08/14 02:58:42;;;;;;;7.15;2.40;;;;;;;17.27;58.15;94349.38;5022934;28;20036;-80
2023/08/14 03:01:07;;;;;;;4.90;2.42;;;;;;;17.23;58.43;94346.59;5022510;28;20057;-80
2023/08/14 03:03:32;;;;;;;4.53;2.58;;;;;;;17.18;58.21;94338.75;5023607;28;20024;-81
2023/08/14 03:05:59;;;;;;;6.03;2.90;;;;;;;17.06;59.31;94347.66;5023662;28;20045;-80
2023/08/14 03:08:24;;;;;;;5.18;2.45;;;;;;;16.99;59.06;94344.75;5023395;28;20029;-80
2023/08/14 03:10:50;;;;;;;3.97;2.15;;;;;;;16.89;58.93;94350.63;5022290;28;20038;-80
2023/08/14 03:13:15;;;;;;;8.43;2.88;;;;;;;16.80;59.62;94354.19;5023599;28;20021;-80
2023/08/14 03:15:41;;;;;;;4.10;2.33;;;;;;;16.70;60.35;94345.81;5022109;28;20021;-80
2023/08/14 03:18:06;;;;;;;6.35;2.80;;;;;;;16.70;61.49;94356.59;5023330;28;20021;-81
2023/08/14 03:20:32;;;;;;;7.55;2.85;;;;;;;16.65;61.21;94360.31;5023454;28;20056;-80
2023/08/14 03:22:57;;;;;;;7.13;3.30;;;;;;;16.64;61.64;94354.13;5023498;28;20014;-81
2023/08/14 03:25:23;;;;;;;12.18;4.13;;;;;;;16.56;62.48;94357.72;5023232;28;20026;-80
2023/08/14 03:27:48;;;;;;;6.43;3.40;;;;;;;16.54;62.06;94362.66;5023234;28;20033;-80
2023/08/14 03:30:14;;;;;;;12.70;3.70;;;;;;;16.53;62.57;94358.41;5023188;28;20040;-80
2023/08/14 03:32:39;;;;;;;8.77;3.60;;;;;;;16.56;62.66;94351.56;5022083;28;20025;-81
2023/08/14 03:35:05;;;;;;;7.95;3.72;;;;;;;16.54;62.61;94349.19;5023371;28;20049;-81
2023/08/14 03:37:30;;;;;;;5.32;3.10;;;;;;;16.54;63.07;94357.25;5023152;28;20088;-80
2023/08/14 03:39:56;;;;;;;8.23;3.22;;;;;;;16.51;63.03;94360.66;5022936;28;20026;-80
2023/08/14 03:42:21;;;;;;;6.82;3.13;;;;;;;16.52;62.95;94347.97;5023150;28;20034;-80
2023/08/14 03:44:46;;;;;;;5.95;3.65;;;;;;;16.56;63.48;94356.94;5021885;28;20021;-80
2023/08/14 03:47:12;;;;;;;11.45;3.58;;;;;;;16.52;63.75;94350.66;5023080;28;20076;-81
2023/08/14 03:49:37;;;;;;;10.65;4.07;;;;;;;16.56;64.14;94348.88;5023083;28;20060;-80
2023/08/14 03:52:03;;;;;;;6.63;3.10;;;;;;;16.53;64.46;94355.72;5022764;28;20026;-80
2023/08/14 03:54:28;;;;;;;6.97;3.22;;;;;;;16.54;64.85;94348.41;5023004;28;20224;-81
2023/08/14 03:56:54;;;;;;;5.57;3.28;;;;;;;16.57;65.12;94348.53;5022993;28;20025;-80
2023/08/14 03:59:19;;;;;;;8.70;3.55;;;;;;;16.64;65.21;94356.03;5022893;28;20021;-80
2023/08/14 04:01:45;;;;;;;6.65;3.38;;;;;;;16.58;65.40;94352.78;5022903;28;20021;-81
2023/08/14 04:04:10;;;;;;;6.50;4.38;;;;;;;16.60;64.90;94347.06;5021682;28;20057;-81
2023/08/14 04:06:37;;;;;;;8.13;3.45;;;;;;;16.59;64.92;94351.66;5022774;28;20060;-80
2023/08/14 04:09:03;;;;;;;13.77;3.58;;;;;;;16.60;64.62;94349.75;5022741;28;20034;-80
2023/08/14 04:11:30;;;;;;;8.18;3.72;;;;;;;16.70;63.77;94351.19;5022542;28;20046;-80
2023/08/14 04:13:56;;;;;;;6.78;3.60;;;;;;;16.58;64.35;94350.09;5022648;28;20049;-80
2023/08/14 04:16:21;;;;;;;6.97;3.90;;;;;;;16.66;64.38;94353.78;5022670;28;20026;-80
2023/08/14 04:18:47;;;;;;;7.15;3.40;;;;;;;16.56;64.58;94355.03;5021588;28;20022;-80
2023/08/14 04:21:13;;;;;;;11.10;3.50;;;;;;;16.62;64.33;94353.66;5022837;28;20029;-80
2023/08/14 04:23:38;;;;;;;9.38;4.20;;;;;;;16.64;64.82;94374.88;5022745;28;20021;-80
2023/08/14 04:26:03;;;;;;;8.38;3.92;;;;;;;16.60;65.08;94374.75;5022635;28;20211;-81
2023/08/14 04:28:29;;;;;;;9.10;4.57;;;;;;;16.53;65.43;94374.56;5024320;28;20045;-80
2023/08/14 04:30:55;;;;;;;8.07;4.70;;;;;;;16.55;65.68;94385.75;5025299;28;20021;-80
2023/08/14 04:33:20;;;;;;;10.68;4.28;;;;;;;16.57;66.13;94380.81;5026340;28;20032;-80
2023/08/14 04:35:46;;;;;;;5.13;3.47;;;;;;;16.51;65.71;94379.47;5026618;28;20037;-80
2023/08/14 04:38:11;;;;;;;7.13;4.47;;;;;;;16.55;65.56;94376.91;5026351;28;20109;-80
2023/08/14 04:40:37;;;;;;;10.75;4.55;;;;;;;16.61;65.68;94375.56;5026286;28;20093;-80
2023/08/14 04:43:02;;;;;;;6.20;3.83;;;;;;;16.68;65.24;94383.84;5026041;28;20088;-80
2023/08/14 04:45:28;;;;;;;7.20;4.10;;;;;;;16.77;65.02;94389.09;5026217;28;20026;-80
2023/08/14 04:47:54;;;;;;;8.52;3.95;;;;;;;16.81;64.99;94387.31;5026058;28;20036;-80
2023/08/14 04:50:19;;;;;;;7.25;3.95;;;;;;;16.86;64.86;94392.47;5026130;28;20026;-80
2023/08/14 04:52:44;;;;;;;8.15;4.05;;;;;;;16.94;64.70;94386.19;5026077;28;20259;-80
2023/08/14 04:55:10;;;;;;;9.07;3.92;;;;;;;17.02;64.75;94385.25;5025983;28;20209;-81
2023/08/14 04:57:35;;;;;;;7.90;3.70;;;;;;;17.05;64.14;94386.47;5026059;28;20381;-80
2023/08/14 05:00:01;;;;;;;9.45;4.20;;;;;;;17.12;64.01;94384.00;5024798;28;20197;-81
2023/08/14 05:02:29;;;;;;;8.68;4.43;;;;;;;17.20;63.45;94385.00;5025888;28;20026;-81
2023/08/14 05:04:54;;;;;;;8.48;4.50;;;;;;;17.20;64.40;94391.16;5025778;28;20029;-80
2023/08/14 05:07:20;;;;;;;10.65;4.25;;;;;;;17.30;64.04;94391.78;5024540;28;20036;-80
2023/08/14 05:09:48;;;;;;;19.27;4.95;;;;;;;17.40;63.73;94392.09;5025753;28;20044;-81
2023/08/14 05:12:13;;;;;;;10.95;4.40;;;;;;;17.49;63.54;94401.94;5025697;28;20252;-81
2023/08/14 05:14:39;;;;;;;13.15;4.80;;;;;;;17.60;63.41;94397.63;5025642;28;20089;-80
2023/08/14 05:17:04;;;;;;;8.50;4.32;;;;;;;17.75;62.87;94402.28;5024572;28;20021;-80
2023/08/14 05:19:30;;;;;;;12.32;4.85;;;;;;;17.80;62.53;94407.41;5025557;28;20022;-80
2023/08/14 05:21:55;;;;;;;15.57;5.07;;;;;;;17.92;61.91;94400.41;5024463;28;20025;-81
2023/08/14 05:24:21;;;;;;;15.27;4.43;;;;;;;18.03;61.27;94399.56;5025467;28;20028;-80
2023/08/14 05:26:46;;;;;;;8.68;4.18;;;;;;;18.16;61.00;94397.56;5024153;28;20221;-80
2023/08/14 05:29:12;;;;;;;8.40;3.63;;;;;;;18.27;61.61;94391.63;5025468;28;20059;-81
2023/08/14 05:31:37;;;;;;;11.65;4.68;;;;;;;18.37;61.43;94397.28;5025274;28;20026;-81
2023/08/14 05:34:03;;;;;;;14.10;4.47;;;;;;;18.51;61.31;94391.44;5025187;28;20018;-81
2023/08/14 05:36:28;;;;;;;12.30;4.80;;;;;;;18.67;60.30;94404.16;5025174;28;20223;-81
2023/08/14 05:38:54;;;;;;;9.43;4.13;;;;;;;18.84;59.57;94396.47;5024949;28;20049;-81
2023/08/14 05:41:21;;;;;;;9.43;3.45;;;;;;;19.00;59.13;94401.84;5025127;28;20026;-81
2023/08/14 05:43:48;;;;;;;7.13;3.45;;;;;;;19.16;58.60;94398.31;5025008;28;20022;-80
2023/08/14 05:46:15;;;;;;;10.20;4.03;;;;;;;19.30;57.87;94405.94;5025331;28;20085;-81
2023/08/14 05:48:40;;;;;;;7.35;3.50;;;;;;;19.41;57.60;94405.00;5024935;28;20216;-81
2023/08/14 05:51:06;;;;;;;11.98;2.97;;;;;;;19.53;56.90;94400.59;5025003;28;20121;-80
2023/08/14 05:53:31;;;;;;;8.35;2.88;;;;;;;19.70;57.06;94402.88;5024752;28;20022;-80
2023/08/14 05:55:57;;;;;;;6.03;3.17;;;;;;;19.83;56.59;94396.16;5024826;28;20037;-80
2023/08/14 05:58:22;;;;;;;12.00;4.30;;;;;;;19.96;56.46;94407.59;5023501;28;20034;-80
2023/08/14 06:00:49;;;;;;;7.18;3.10;;;;;;;20.10;56.12;94400.88;5024759;28;20022;-80
2023/08/14 06:03:14;;;;;;;11.20;2.70;;;;;;;20.22;55.03;94409.59;5023540;28;20072;-80
2023/08/14 06:05:40;;;;;;;5.38;2.38;;;;;;;20.35;54.73;94402.09;5024443;28;20021;-80
2023/08/14 06:08:06;;;;;;;6.63;2.75;;;;;;;20.45;54.78;94406.09;5024261;28;20037;-80
2023/08/14 06:10:31;;;;;;;11.80;2.88;;;;;;;20.55;54.24;94396.59;5024135;28;20045;-80
2023/08/14 06:12:57;;;;;;;7.70;3.17;;;;;;;20.62;54.14;94397.53;5023249;28;20058;-80
2023/08/14 06:15:24;;;;;;;10.80;3.45;;;;;;;20.73;54.02;94399.59;5024520;28;20026;-80
2023/08/14 06:17:50;;;;;;;15.27;3.60;;;;;;;20.88;53.79;94409.50;5024499;28;20029;-80
2023/08/14 06:20:16;;;;;;;9.00;2.90;;;;;;;20.99;52.59;94404.25;5024635;28;20021;-80
2023/08/14 06:22:43;;;;;;;5.75;2.95;;;;;;;21.09;52.82;94397.41;5024436;28;20253;-80
2023/08/14 06:25:09;;;;;;;10.45;2.72;;;;;;;21.18;51.83;94395.19;5024133;28;20224;-80
2023/08/14 06:27:35;;;;;;;8.00;3.08;;;;;;;21.28;51.41;94407.34;5023109;28;20029;-80
2023/08/14 06:30:01;;;;;;;12.65;3.53;;;;;;;21.37;51.32;94408.63;5024159;28;20088;-80
2023/08/14 06:32:27;;;;;;;10.98;3.17;;;;;;;21.46;50.30;94405.66;5024069;28;20061;-80
2023/08/14 06:34:52;;;;;;;13.77;3.47;;;;;;;21.48;48.94;94403.34;5024224;28;20033;-80
2023/08/14 06:37:20;;;;;;;7.30;3.05;;;;;;;21.52;48.61;94401.47;5024025;28;20021;-80
2023/08/14 06:39:45;;;;;;;8.68;3.08;;;;;;;21.60;48.27;94407.75;5024182;28;20068;-81
2023/08/14 06:42:11;;;;;;;9.50;2.47;;;;;;;21.69;47.73;94402.03;5024018;28;20030;-80
2023/08/14 06:44:36;;;;;;;9.60;2.83;;;;;;;21.78;47.92;94408.75;5022984;28;20030;-80
2023/08/14 06:47:02;;;;;;;5.43;2.70;;;;;;;21.87;47.79;94407.66;5022549;28;20399;-80
2023/08/14 06:49:27;;;;;;;7.50;2.78;;;;;;;21.95;47.98;94412.03;5023893;28;20025;-80
2023/08/14 06:51:53;;;;;;;10.23;3.20;;;;;;;21.93;47.23;94409.66;5023296;28;20025;-80
2023/08/14 06:54:19;;;;;;;10.45;2.83;;;;;;;21.99;47.16;94407.41;5023622;28;20029;-80
2023/08/14 06:56:44;;;;;;;12.55;3.00;;;;;;;22.02;46.96;94406.66;5023941;28;20013;-80
2023/08/14 06:59:10;;;;;;;5.80;2.80;;;;;;;22.13;47.02;94410.25;5023800;28;20029;-80
2023/08/14 07:01:35;;;;;;;7.60;2.67;;;;;;;22.23;46.89;94416.94;5023704;28;20022;-80
2023/08/14 07:04:04;;;;;;;6.05;3.00;;;;;;;22.29;46.57;94409.25;5022408;28;20362;-81
2023/08/14 07:06:30;;;;;;;11.93;2.90;;;;;;;22.35;46.68;94414.00;5022355;28;20308;-80
2023/08/14 07:08:55;;;;;;;8.75;2.67;;;;;;;22.43;46.68;94414.84;5023521;28;20061;-81
2023/08/14 07:11:21;;;;;;;4.93;2.35;;;;;;;22.55;45.34;94409.13;5023478;28;20096;-80
2023/08/14 07:13:46;;;;;;;5.95;2.95;;;;;;;22.63;44.28;94416.16;5023396;28;20025;-80
2023/08/14 07:16:12;;;;;;;10.93;3.00;;;;;;;22.74;43.20;94410.03;5023511;28;20358;-80
2023/08/14 07:18:38;;;;;;;8.98;2.80;;;;;;;22.80;42.67;94413.97;5022276;28;20105;-80
2023/08/14 07:21:03;;;;;;;9.30;2.83;;;;;;;22.91;42.91;94417.50;5023423;28;20025;-80
2023/08/14 07:23:29;;;;;;;5.60;2.60;;;;;;;23.01;42.99;94414.09;5023064;28;20057;-80
2023/08/14 07:25:57;;;;;;;7.00;3.22;;;;;;;23.12;42.89;94427.78;5023511;28;20029;-80
2023/08/14 07:28:23;;;;;;;8.05;2.35;;;;;;;23.20;41.87;94428.59;5023226;28;20102;-80
2023/08/14 07:30:48;;;;;;;4.93;3.13;;;;;;;23.29;41.19;94414.69;5023280;28;20029;-80
2023/08/14 07:33:15;;;;;;;7.30;2.60;;;;;;;23.32;41.08;94422.06;5022143;28;20022;-80
2023/08/14 07:35:41;;;;;;;8.75;2.30;;;;;;;23.40;41.24;94423.66;5023112;28;20028;-80
2023/08/14 07:38:07;;;;;;;6.28;3.00;;;;;;;23.48;41.86;94421.75;5023098;28;20037;-81
2023/08/14 07:40:33;;;;;;;12.90;3.30;;;;;;;23.54;41.19;94417.50;5021924;28;20030;-80
2023/08/14 07:42:58;;;;;;;8.15;2.78;;;;;;;23.65;41.19;94412.91;5022935;28;20021;-81
2023/08/14 07:45:24;;;;;;;7.57;2.65;;;;;;;23.73;40.58;94411.75;5022838;28;20048;-81
2023/08/14 07:47:49;;;;;;;7.85;2.47;;;;;;;23.81;40.25;94416.09;5023013;28;20100;-81
2023/08/14 07:50:14;;;;;;;12.10;2.92;;;;;;;23.85;40.10;94415.31;5021967;28;20025;-81
2023/08/14 07:52:40;;;;;;;6.93;2.47;;;;;;;23.83;39.98;94415.69;5022884;28;20022;-80
2023/08/14 07:55:06;;;;;;;6.28;2.42;;;;;;;23.88;39.58;94411.84;5022920;28;20026;-80
2023/08/14 07:57:31;;;;;;;6.53;2.75;;;;;;;23.88;39.89;94418.03;5022892;28;20018;-80
2023/08/14 07:59:56;;;;;;;10.52;2.38;;;;;;;23.92;40.51;94418.06;5022910;28;20053;-80
2023/08/14 08:02:22;;;;;;;6.22;3.00;;;;;;;23.88;40.56;94423.50;5024324;28;20219;-80
2023/08/14 08:04:48;;;;;;;8.93;2.70;;;;;;;23.94;39.70;94423.91;5026855;28;20018;-80
2023/08/14 08:07:14;;;;;;;11.57;2.67;;;;;;;23.98;39.81;94419.25;5027083;28;20093;-81
2023/08/14 08:09:39;;;;;;;4.53;2.42;;;;;;;24.01;39.35;94421.97;5026754;28;20048;-80
2023/08/14 08:12:06;;;;;;;10.18;2.88;;;;;;;24.06;39.65;94426.25;5025437;28;20209;-81
2023/08/14 08:14:33;;;;;;;5.03;2.50;;;;;;;24.11;40.26;94425.88;5025660;28;20096;-81
2023/08/14 08:16:58;;;;;;;6.05;2.83;;;;;;;24.19;40.00;94426.66;5026771;28;20017;-80
2023/08/14 08:19:24;;;;;;;4.78;2.70;;;;;;;24.29;39.60;94422.41;5026847;28;20136;-81
2023/08/14 08:21:49;;;;;;;7.28;2.40;;;;;;;24.36;39.03;94417.75;5026593;28;20048;-81
2023/08/14 08:24:14;;;;;;;7.38;3.38;;;;;;;24.46;38.83;94420.88;5026670;28;20092;-80
2023/08/14 08:26:40;;;;;;;6.38;3.03;;;;;;;24.53;38.50;94421.69;5025350;28;20118;-81
2023/08/14 08:29:05;;;;;;;7.55;2.53;;;;;;;24.63;38.49;94415.47;5026585;28;20596;-80
2023/08/14 08:31:32;;;;;;;9.88;2.85;;;;;;;24.74;37.71;94406.50;5026585;28;20026;-80
2023/08/14 08:33:57;;;;;;;4.72;2.75;;;;;;;24.82;38.21;94408.06;5026238;28;20044;-81
2023/08/14 08:36:23;;;;;;;5.50;2.47;;;;;;;24.89;37.50;94405.31;5026504;28;20026;-81
2023/08/14 08:38:48;;;;;;;13.95;2.83;;;;;;;24.95;37.54;94402.97;5026386;28;20094;-80
2023/08/14 08:41:20;;;;;;;6.10;2.33;;;;;;;24.87;37.50;94410.38;5026543;28;20030;-81
2023/08/14 08:43:49;;;;;;;7.28;3.00;;;;;;;24.93;38.17;94411.53;5026325;28;20214;-80
2023/08/14 08:46:16;;;;;;;5.35;2.65;;;;;;;24.99;36.97;94401.00;5025203;28;20048;-81
2023/08/14 08:48:42;;;;;;;6.78;2.50;;;;;;;25.01;36.81;94399.47;5025100;28;20030;-81
2023/08/14 08:51:08;;;;;;;6.97;2.92;;;;;;;25.08;37.14;94404.13;5025029;28;20105;-80
2023/08/14 08:53:35;;;;;;;9.07;2.28;;;;;;;25.11;37.17;94403.31;5025974;28;20045;-81
2023/08/14 08:56:01;;;;;;;4.75;2.38;;;;;;;25.20;36.31;94408.41;5026162;28;20068;-81
2023/08/14 08:58:27;;;;;;;10.95;2.50;;;;;;;25.00;36.62;94405.31;5026047;28;20018;-80
2023/08/14 09:00:54;;;;;;;3.25;2.42;;;;;;;25.15;36.75;94397.88;5025986;28;20022;-80
2023/08/14 09:03:23;;;;;;;5.93;2.30;;;;;;;25.23;37.00;94393.97;5025694;28;20022;-81
2023/08/14 09:05:49;;;;;;;9.52;2.67;;;;;;;25.33;37.51;94390.44;5025910;28;20025;-81
2023/08/14 09:08:15;;;;;;;3.90;2.53;;;;;;;25.27;37.01;94393.97;5025918;28;20259;-80
2023/08/14 09:10:40;;;;;;;9.20;2.35;;;;;;;25.07;36.91;94388.91;5025566;28;20045;-81
2023/08/14 09:13:06;;;;;;;4.25;2.40;;;;;;;25.14;36.95;94390.88;5025312;28;20029;-81
2023/08/14 09:15:31;;;;;;;9.10;2.58;;;;;;;25.30;36.79;94388.53;5025373;28;20041;-81
2023/08/14 09:17:57;;;;;;;7.43;2.60;;;;;;;25.42;36.04;94395.47;5024358;28;20037;-80
2023/08/14 09:20:23;;;;;;;4.13;2.25;;;;;;;25.54;36.07;94386.84;5024466;28;20026;-80
2023/08/14 09:22:49;;;;;;;13.63;2.92;;;;;;;25.61;35.82;94386.06;5025408;28;20034;-81
2023/08/14 09:25:15;;;;;;;4.00;2.50;;;;;;;25.53;35.51;94379.09;5025707;28;20056;-81
2023/08/14 09:27:44;;;;;;;4.35;2.10;;;;;;;25.63;35.20;94378.25;5024140;28;20034;-81
2023/08/14 09:30:12;;;;;;;5.28;2.35;;;;;;;25.69;34.85;94386.81;5025450;28;20037;-81
2023/08/14 09:32:38;;;;;;;5.20;2.67;;;;;;;25.57;35.10;94385.31;5025056;28;20045;-81
2023/08/14 09:35:04;;;;;;;10.45;2.25;;;;;;;25.69;34.47;94376.66;5025405;28;20248;-81
2023/08/14 09:37:29;;;;;;;14.15;2.47;;;;;;;25.49;34.28;94373.63;5025285;28;20018;-81
2023/08/14 09:40:14;;;;;;;4.00;2.17;;;;;;;25.31;34.90;94379.16;5025109;28;20375;-81
2023/08/14 09:42:45;;;;;;;5.85;2.38;;;;;;;25.33;34.71;94371.34;5025096;28;20215;-81
2023/08/14 09:45:13;;;;;;;6.45;2.60;;;;;;;25.13;34.96;94372.94;5025066;28;20022;-81
2023/08/14 09:47:40;;;;;;;6.05;2.83;;;;;;;25.02;34.99;94367.53;5024958;28;20026;-81
2023/08/14 09:50:07;;;;;;;5.78;2.40;;;;;;;25.00;35.52;94364.41;5025155;28;20336;-80
2023/08/14 09:52:33;;;;;;;10.23;2.30;;;;;;;25.00;36.18;94365.19;5025031;28;20022;-79
2023/08/14 09:55:01;;;;;;;9.27;2.30;;;;;;;25.24;35.52;94365.53;5024996;28;20335;-79
2023/08/14 09:57:26;;;;;;;7.20;2.40;;;;;;;25.34;35.32;94370.19;5024700;28;20018;-79
2023/08/14 09:59:52;;;;;;;5.68;2.33;;;;;;;25.37;35.09;94352.25;5024894;28;20036;-79
2023/08/14 10:02:22;;;;;;;4.03;2.30;;;;;;;25.50;35.41;94358.03;5024796;28;20122;-79
2023/08/14 10:04:48;;;;;;;8.70;2.05;;;;;;;25.57;34.89;94352.56;5024626;28;20083;-79
2023/08/14 10:07:15;;;;;;;4.55;2.55;;;;;;;25.65;34.42;94343.16;5024645;28;20347;-79
2023/08/14 10:09:44;;;;;;;6.28;2.40;;;;;;;25.75;35.03;94347.78;5024629;28;20115;-79
2023/08/14 10:12:16;;;;;;;5.50;2.28;;;;;;;25.89;34.57;94348.84;5023316;28;20026;-79
2023/08/14 10:14:47;;;;;;;7.25;2.55;;;;;;;26.04;35.51;94342.16;5024601;28;20026;-79
2023/08/14 10:17:24;;;;;;;5.40;2.45;;;;;;;26.19;34.48;94342.84;5024775;28;20153;-80
2023/08/14 10:19:52;;;;;;;4.47;2.63;;;;;;;26.37;35.40;94337.25;5023347;28;20025;-79
2023/08/14 10:22:19;;;;;;;6.70;2.40;;;;;;;26.56;34.22;94341.38;5023255;28;20026;-79
2023/08/14 10:24:46;;;;;;;4.68;2.60;;;;;;;26.46;33.16;94340.31;5023916;28;20018;-79
2023/08/14 10:27:12;;;;;;;5.35;2.75;;;;;;;26.50;33.38;94337.50;5022572;28;20113;-79
2023/08/14 10:29:38;;;;;;;4.35;2.42;;;;;;;26.65;34.37;94330.00;5024197;28;20028;-79
2023/08/14 10:32:05;;;;;;;4.13;2.83;;;;;;;26.84;33.82;94329.41;5024204;28;20021;-79
2023/08/14 10:34:32;;;;;;;5.30;2.88;;;;;;;27.01;33.98;94333.94;5024005;28;20021;-79
2023/08/14 10:36:57;;;;;;;8.70;2.50;;;;;;;27.18;33.72;94337.66;5024259;28;20030;-79
2023/08/14 10:39:36;;;;;;;4.75;2.70;;;;;;;27.41;33.13;94334.28;5024114;28;20018;-79
2023/08/14 10:42:05;;;;;;;4.88;2.42;;;;;;;27.56;32.96;94323.16;5023868;28;20048;-80
2023/08/14 10:44:35;;;;;;;5.43;2.78;;;;;;;27.75;33.44;94317.03;5023905;28;20097;-80
2023/08/14 10:47:10;;;;;;;4.93;2.90;;;;;;;27.93;32.77;94321.53;5023974;28;20026;-80
2023/08/14 10:49:48;;;;;;;4.68;2.47;;;;;;;27.96;31.13;94312.47;5023809;28;20505;-80
2023/08/14 10:52:20;;;;;;;5.60;2.58;;;;;;;27.97;31.96;94320.28;5024026;28;20374;-80
2023/08/14 10:54:54;;;;;;;10.18;2.92;;;;;;;28.13;32.97;94327.88;5022774;28;20113;-80
2023/08/14 10:57:28;;;;;;;9.65;2.28;;;;;;;28.25;32.94;94320.25;5023741;28;20059;-80
2023/08/14 10:59:58;;;;;;;5.40;2.33;;;;;;;28.38;33.00;94319.25;5022637;28;20141;-80
2023/08/14 11:02:25;;;;;;;4.82;2.67;;;;;;;28.41;32.30;94323.91;5023798;28;20025;-80
2023/08/14 11:05:01;;;;;;;7.25;2.95;;;;;;;28.46;32.08;94317.19;5023385;28;20025;-80
2023/08/14 11:07:34;;;;;;;7.97;2.63;;;;;;;28.44;31.91;94322.31;5023619;28;20028;-80
2023/08/14 11:10:03;;;;;;;3.30;2.20;;;;;;;28.19;32.06;94320.75;5023604;28;20152;-80
2023/08/14 11:12:28;;;;;;;6.75;2.70;;;;;;;28.36;31.40;94320.88;5023309;28;20033;-80
2023/08/14 11:14:57;;;;;;;6.22;2.78;;;;;;;28.00;31.71;94313.19;5023448;28;20014;-80
2023/08/14 11:17:24;;;;;;;3.75;2.20;;;;;;;27.71;32.14;94310.06;5023197;28;20013;-80
2023/08/14 11:19:50;;;;;;;4.65;2.30;;;;;;;27.49;32.01;94309.56;5023229;28;20025;-80
2023/08/14 11:22:15;;;;;;;5.53;2.50;;;;;;;27.53;32.55;94310.31;5023498;28;20072;-80
2023/08/14 11:24:41;;;;;;;6.85;2.88;;;;;;;27.71;32.22;94305.34;5023501;28;20212;-80
2023/08/14 11:27:07;;;;;;;4.22;2.50;;;;;;;27.83;32.01;94306.00;5023116;28;20201;-80
2023/08/14 11:29:35;;;;;;;9.40;2.88;;;;;;;27.97;31.69;94300.34;5023238;28;20029;-80